createdAt,value
2017-01-13T00:00:35.941Z,947.74
2017-01-13T00:01:35.897Z,947.78
2017-01-13T00:02:35.855Z,948.02
2017-01-13T00:03:35.815Z,948.18
2017-01-13T00:04:35.777Z,948.21
2017-01-13T00:05:35.733Z,948.16
2017-01-13T00:06:35.693Z,948.13
2017-01-13T00:07:35.653Z,947.94
2017-01-13T00:08:35.614Z,947.85
2017-01-13T00:09:35.574Z,947.79
2017-01-13T00:10:35.532Z,947.83
2017-01-13T00:11:35.492Z,947.87
2017-01-13T00:12:35.452Z,947.84
2017-01-13T00:13:35.411Z,947.88
2017-01-13T00:14:35.371Z,947.81
2017-01-13T00:15:35.331Z,947.86
2017-01-13T00:16:35.288Z,947.88
2017-01-13T00:17:35.249Z,947.81
2017-01-13T00:18:35.213Z,947.85
2017-01-13T00:19:35.170Z,947.75
2017-01-13T00:20:35.128Z,947.75
2017-01-13T00:21:35.086Z,947.76
2017-01-13T00:22:35.046Z,947.81
2017-01-13T00:23:35.007Z,947.77
2017-01-13T00:24:34.965Z,947.73
2017-01-13T00:25:34.925Z,947.73
2017-01-13T00:26:34.887Z,947.66
2017-01-13T00:27:34.843Z,947.61
2017-01-13T00:28:34.804Z,947.7
2017-01-13T00:29:34.763Z,947.68
2017-01-13T00:30:34.725Z,947.64
2017-01-13T00:31:34.682Z,947.56
2017-01-13T00:32:34.640Z,947.6
2017-01-13T00:33:34.600Z,947.63
2017-01-13T00:34:34.560Z,947.67
2017-01-13T00:35:34.521Z,947.65
2017-01-13T00:36:34.479Z,947.69
2017-01-13T00:37:34.440Z,947.71
2017-01-13T00:38:34.399Z,947.72
2017-01-13T00:39:34.358Z,947.7
2017-01-13T00:40:34.317Z,947.7
2017-01-13T00:41:34.281Z,947.63
2017-01-13T00:42:34.235Z,947.58
2017-01-13T00:43:34.196Z,947.52
2017-01-13T00:44:34.155Z,947.53
2017-01-13T00:45:34.115Z,947.5
2017-01-13T00:46:34.076Z,947.56
2017-01-13T00:47:34.032Z,947.57
2017-01-13T00:48:33.992Z,947.72
2017-01-13T00:49:33.960Z,947.82
2017-01-13T00:50:33.912Z,947.75
2017-01-13T00:51:33.872Z,947.81
2017-01-13T00:52:33.833Z,947.72
2017-01-13T00:53:33.791Z,947.57
2017-01-13T00:54:33.751Z,947.42
2017-01-13T00:55:33.711Z,947.57
2017-01-13T00:56:33.670Z,947.48
2017-01-13T00:57:33.632Z,947.57
2017-01-13T00:58:33.593Z,947.65
2017-01-13T00:59:33.549Z,947.75
2017-01-13T01:00:33.509Z,947.67
2017-01-13T01:01:33.469Z,947.66
2017-01-13T01:02:33.429Z,947.7
2017-01-13T01:03:33.388Z,947.63
2017-01-13T01:04:33.346Z,947.58
2017-01-13T01:05:33.306Z,947.49
2017-01-13T01:06:33.266Z,947.61
2017-01-13T01:07:33.226Z,947.72
2017-01-13T01:08:33.185Z,947.86
2017-01-13T01:09:33.144Z,947.71
2017-01-13T01:10:33.105Z,947.75
2017-01-13T01:11:33.066Z,947.78
2017-01-13T01:12:33.027Z,947.72
2017-01-13T01:13:32.985Z,947.93
2017-01-13T01:14:32.944Z,947.91
2017-01-13T01:15:32.904Z,947.98
2017-01-13T01:16:32.862Z,947.95
2017-01-13T01:17:32.823Z,947.96
2017-01-13T01:18:32.788Z,947.98
2017-01-13T01:19:32.742Z,947.97
2017-01-13T01:20:32.701Z,947.89
2017-01-13T01:21:32.663Z,948
2017-01-13T01:22:32.620Z,947.98
2017-01-13T01:23:32.580Z,947.9
2017-01-13T01:24:32.540Z,948.12
2017-01-13T01:25:32.503Z,948.12
2017-01-13T01:26:32.460Z,948.01
2017-01-13T01:27:32.419Z,948.24
2017-01-13T01:28:32.380Z,948.33
2017-01-13T01:29:32.339Z,948.14
2017-01-13T01:30:32.298Z,948.07
2017-01-13T01:31:32.258Z,948.31
2017-01-13T01:32:32.219Z,948.36
2017-01-13T01:33:32.178Z,948.36
2017-01-13T01:34:32.137Z,948.02
2017-01-13T01:35:32.101Z,948.14
2017-01-13T01:36:32.057Z,948.55
2017-01-13T01:37:32.015Z,948.32
2017-01-13T01:38:31.980Z,948.7
2017-01-13T01:39:31.935Z,948.74
2017-01-13T01:40:31.893Z,948.79
2017-01-13T01:41:31.854Z,949.03
2017-01-13T01:42:31.814Z,948.99
2017-01-13T01:43:31.775Z,948.91
2017-01-13T01:44:31.732Z,948.95
2017-01-13T01:45:31.693Z,949.07
2017-01-13T01:46:31.656Z,949.15
2017-01-13T01:47:31.611Z,949.13
2017-01-13T01:48:31.571Z,949.04
2017-01-13T01:49:31.531Z,949
2017-01-13T01:50:31.491Z,949.07
2017-01-13T01:51:31.449Z,949.06
2017-01-13T01:52:31.410Z,949
2017-01-13T01:53:31.370Z,948.96
2017-01-13T01:54:31.327Z,948.85
2017-01-13T01:55:31.288Z,948.88
2017-01-13T01:56:31.246Z,949.04
2017-01-13T01:57:31.206Z,948.98
2017-01-13T01:58:31.168Z,949
2017-01-13T01:59:31.125Z,948.77
2017-01-13T02:00:31.084Z,949.09
2017-01-13T02:01:31.045Z,949.25
2017-01-13T02:02:31.004Z,949.07
2017-01-13T02:03:30.963Z,949.1
2017-01-13T02:04:30.923Z,949.17
2017-01-13T02:05:30.881Z,949.25
2017-01-13T02:06:30.839Z,949.32
2017-01-13T02:07:30.799Z,949.24
2017-01-13T02:08:30.759Z,949.3
2017-01-13T02:09:30.720Z,949.3
2017-01-13T02:10:30.679Z,949.28
2017-01-13T02:11:30.639Z,949.28
2017-01-13T02:12:30.607Z,949.39
2017-01-13T02:13:30.556Z,949.29
2017-01-13T02:14:30.515Z,949.47
2017-01-13T02:15:30.475Z,949.33
2017-01-13T02:16:30.435Z,949.4
2017-01-13T02:17:30.393Z,949.29
2017-01-13T02:18:30.354Z,949.32
2017-01-13T02:19:30.313Z,949.46
2017-01-13T02:20:30.272Z,949.5
2017-01-13T02:21:30.232Z,949.52
2017-01-13T02:22:30.191Z,949.56
2017-01-13T02:23:30.151Z,949.6
2017-01-13T02:24:30.114Z,949.61
2017-01-13T02:25:30.071Z,949.61
2017-01-13T02:26:30.032Z,949.41
2017-01-13T02:27:29.988Z,949.61
2017-01-13T02:28:29.945Z,949.51
2017-01-13T02:29:29.906Z,949.53
2017-01-13T02:30:29.865Z,949.51
2017-01-13T02:31:29.825Z,949.56
2017-01-13T02:32:29.789Z,949.33
2017-01-13T02:33:29.746Z,949.42
2017-01-13T02:34:29.702Z,949.64
2017-01-13T02:35:29.660Z,949.61
2017-01-13T02:36:29.619Z,949.72
2017-01-13T02:37:29.581Z,949.66
2017-01-13T02:38:29.538Z,949.67
2017-01-13T02:39:29.498Z,949.61
2017-01-13T02:40:29.456Z,949.52
2017-01-13T02:41:29.416Z,949.56
2017-01-13T02:42:29.374Z,949.5
2017-01-13T02:43:29.334Z,949.63
2017-01-13T02:44:29.293Z,949.57
2017-01-13T02:45:29.254Z,949.59
2017-01-13T02:46:29.210Z,949.61
2017-01-13T02:47:29.172Z,949.65
2017-01-13T02:48:29.130Z,949.74
2017-01-13T02:49:29.089Z,949.79
2017-01-13T02:50:29.047Z,949.84
2017-01-13T02:51:29.005Z,949.81
2017-01-13T02:52:28.966Z,949.7
2017-01-13T02:53:28.924Z,949.83
2017-01-13T02:54:28.881Z,949.81
2017-01-13T02:55:28.840Z,949.88
2017-01-13T02:56:28.801Z,949.97
2017-01-13T02:57:28.759Z,949.99
2017-01-13T02:58:28.717Z,950.01
2017-01-13T02:59:28.677Z,949.97
2017-01-13T03:00:28.636Z,949.97
2017-01-13T03:01:28.594Z,949.88
2017-01-13T03:02:28.552Z,949.84
2017-01-13T03:03:28.511Z,949.76
2017-01-13T03:04:28.471Z,949.94
2017-01-13T03:05:28.429Z,949.81
2017-01-13T03:06:28.387Z,949.89
2017-01-13T03:07:28.348Z,949.95
2017-01-13T03:08:28.306Z,949.79
2017-01-13T03:09:28.264Z,949.85
2017-01-13T03:10:28.223Z,949.82
2017-01-13T03:11:28.182Z,949.91
2017-01-13T03:12:28.140Z,949.8
2017-01-13T03:13:28.100Z,949.89
2017-01-13T03:14:28.058Z,949.92
2017-01-13T03:15:28.016Z,950
2017-01-13T03:16:27.977Z,949.79
2017-01-13T03:17:27.934Z,949.87
2017-01-13T03:18:27.892Z,949.82
2017-01-13T03:19:27.851Z,949.86
2017-01-13T03:20:27.810Z,949.74
2017-01-13T03:21:27.769Z,949.8
2017-01-13T03:22:27.728Z,949.77
2017-01-13T03:23:27.686Z,949.87
2017-01-13T03:24:27.646Z,949.64
2017-01-13T03:25:27.602Z,949.84
2017-01-13T03:26:27.562Z,949.96
2017-01-13T03:27:27.521Z,949.81
2017-01-13T03:28:27.479Z,950.06
2017-01-13T03:29:27.438Z,949.92
2017-01-13T03:30:27.398Z,949.86
2017-01-13T03:31:27.355Z,949.88
2017-01-13T03:32:27.314Z,949.92
2017-01-13T03:33:27.272Z,949.98
2017-01-13T03:34:27.231Z,949.98
2017-01-13T03:35:27.188Z,950.01
2017-01-13T03:36:27.150Z,950.05
2017-01-13T03:37:27.106Z,950.04
2017-01-13T03:38:27.065Z,950.08
2017-01-13T03:39:27.024Z,950.02
2017-01-13T03:40:26.980Z,949.98
2017-01-13T03:41:26.939Z,950.01
2017-01-13T03:42:26.899Z,950.07
2017-01-13T03:43:26.857Z,950.22
2017-01-13T03:44:26.819Z,950.2
2017-01-13T03:45:26.774Z,950.13
2017-01-13T03:46:26.732Z,950.15
2017-01-13T03:47:26.692Z,950.14
2017-01-13T03:48:26.649Z,950.11
2017-01-13T03:49:26.607Z,950.06
2017-01-13T03:50:26.567Z,950.18
2017-01-13T03:51:26.526Z,950.01
2017-01-13T03:52:26.483Z,950.17
2017-01-13T03:53:26.441Z,950.17
2017-01-13T03:54:26.401Z,950.05
2017-01-13T03:55:26.359Z,950.06
2017-01-13T03:56:26.317Z,950
2017-01-13T03:57:26.276Z,949.87
2017-01-13T03:58:26.235Z,949.99
2017-01-13T03:59:26.193Z,949.91
2017-01-13T04:00:26.151Z,949.89
2017-01-13T04:01:26.113Z,949.99
2017-01-13T04:02:26.070Z,949.9
2017-01-13T04:03:26.027Z,949.97
2017-01-13T04:04:25.985Z,950
2017-01-13T04:05:25.943Z,949.98
2017-01-13T04:06:25.907Z,950.06
2017-01-13T04:07:25.883Z,950.12
2017-01-13T04:08:25.820Z,950.21
2017-01-13T04:09:25.777Z,950.13
2017-01-13T04:10:25.735Z,950.13
2017-01-13T04:11:25.695Z,950.02
2017-01-13T04:12:25.653Z,950.13
2017-01-13T04:13:25.611Z,950.11
2017-01-13T04:14:25.570Z,950.08
2017-01-13T04:15:25.528Z,950.11
2017-01-13T04:16:25.487Z,950.11
2017-01-13T04:17:25.446Z,950.15
2017-01-13T04:18:25.403Z,950.2
2017-01-13T04:19:25.362Z,950.14
2017-01-13T04:20:25.320Z,950.21
2017-01-13T04:21:25.283Z,950.09
2017-01-13T04:22:25.237Z,950.12
2017-01-13T04:23:25.195Z,950.11
2017-01-13T04:24:25.153Z,950.11
2017-01-13T04:25:25.110Z,950.18
2017-01-13T04:26:25.069Z,950.22
2017-01-13T04:27:25.029Z,950.15
2017-01-13T04:28:24.990Z,950.16
2017-01-13T04:29:24.946Z,950.18
2017-01-13T04:30:24.902Z,950.24
2017-01-13T04:31:24.863Z,950.27
2017-01-13T04:32:24.819Z,950.34
2017-01-13T04:33:24.777Z,950.31
2017-01-13T04:34:24.736Z,950.38
2017-01-13T04:35:24.696Z,950.42
2017-01-13T04:36:24.652Z,950.39
2017-01-13T04:37:24.611Z,950.3
2017-01-13T04:38:24.570Z,950.3
2017-01-13T04:39:24.528Z,950.36
2017-01-13T04:40:24.492Z,950.38
2017-01-13T04:41:24.445Z,950.45
2017-01-13T04:42:24.404Z,950.42
2017-01-13T04:43:24.361Z,950.36
2017-01-13T04:44:24.320Z,950.38
2017-01-13T04:45:24.277Z,950.52
2017-01-13T04:46:24.237Z,950.47
2017-01-13T04:47:24.193Z,950.5
2017-01-13T04:48:24.152Z,950.53
2017-01-13T04:49:24.110Z,950.56
2017-01-13T04:50:24.068Z,950.51
2017-01-13T04:51:24.026Z,950.58
2017-01-13T04:52:23.984Z,950.55
2017-01-13T04:53:23.944Z,950.58
2017-01-13T04:54:23.900Z,950.6
2017-01-13T04:55:23.859Z,950.66
2017-01-13T04:56:23.817Z,950.55
2017-01-13T04:57:23.776Z,950.49
2017-01-13T04:58:23.732Z,950.45
2017-01-13T04:59:23.689Z,950.46
2017-01-13T05:00:23.649Z,950.48
2017-01-13T05:01:23.607Z,950.47
2017-01-13T05:02:23.564Z,950.43
2017-01-13T05:03:23.522Z,950.39
2017-01-13T05:04:23.480Z,950.51
2017-01-13T05:05:23.442Z,950.53
2017-01-13T05:06:23.396Z,950.47
2017-01-13T05:07:23.354Z,950.48
2017-01-13T05:08:23.313Z,950.45
2017-01-13T05:09:23.270Z,950.43
2017-01-13T05:10:23.227Z,950.51
2017-01-13T05:11:23.188Z,950.4
2017-01-13T05:12:23.141Z,950.43
2017-01-13T05:13:23.100Z,950.32
2017-01-13T05:14:23.059Z,950.46
2017-01-13T05:15:23.015Z,950.52
2017-01-13T05:16:22.974Z,950.57
2017-01-13T05:17:22.932Z,950.72
2017-01-13T05:18:22.891Z,950.77
2017-01-13T05:19:22.848Z,950.69
2017-01-13T05:20:22.807Z,950.74
2017-01-13T05:21:22.765Z,950.77
2017-01-13T05:22:22.722Z,950.91
2017-01-13T05:23:22.679Z,950.95
2017-01-13T05:24:22.637Z,951.11
2017-01-13T05:25:22.596Z,951.21
2017-01-13T05:26:22.554Z,951.22
2017-01-13T05:27:22.511Z,951.22
2017-01-13T05:28:22.471Z,951.39
2017-01-13T05:29:22.426Z,951.45
2017-01-13T05:30:22.384Z,951.5
2017-01-13T05:31:22.343Z,951.3
2017-01-13T05:32:22.299Z,951.46
2017-01-13T05:33:22.258Z,951.65
2017-01-13T05:34:22.214Z,951.54
2017-01-13T05:35:22.183Z,951.54
2017-01-13T05:36:22.135Z,951.73
2017-01-13T05:37:22.090Z,951.82
2017-01-13T05:38:22.045Z,951.79
2017-01-13T05:39:22.004Z,951.9
2017-01-13T05:40:21.961Z,951.94
2017-01-13T05:41:21.920Z,951.92
2017-01-13T05:42:21.878Z,952.02
2017-01-13T05:43:21.835Z,952.01
2017-01-13T05:44:21.794Z,952.02
2017-01-13T05:45:21.750Z,951.96
2017-01-13T05:46:21.708Z,951.98
2017-01-13T05:47:21.667Z,952.14
2017-01-13T05:48:21.626Z,952.15
2017-01-13T05:49:21.582Z,952.11
2017-01-13T05:50:21.540Z,952.05
2017-01-13T05:51:21.499Z,952.2
2017-01-13T05:52:21.456Z,952.21
2017-01-13T05:53:21.413Z,952.29
2017-01-13T05:54:21.373Z,952.27
2017-01-13T05:55:21.331Z,952.3
2017-01-13T05:56:21.286Z,952.24
2017-01-13T05:57:21.244Z,952.26
2017-01-13T05:58:21.203Z,952.28
2017-01-13T05:59:21.162Z,952.3
2017-01-13T06:00:21.118Z,952.32
2017-01-13T06:01:21.076Z,952.37
2017-01-13T06:02:21.034Z,952.39
2017-01-13T06:03:20.992Z,952.43
2017-01-13T06:04:20.949Z,952.46
2017-01-13T06:05:20.909Z,952.47
2017-01-13T06:06:20.865Z,952.6
2017-01-13T06:07:20.824Z,952.53
2017-01-13T06:08:20.781Z,952.5
2017-01-13T06:09:20.739Z,952.48
2017-01-13T06:10:20.696Z,952.45
2017-01-13T06:11:20.653Z,952.54
2017-01-13T06:12:20.611Z,952.5
2017-01-13T06:13:20.569Z,952.51
2017-01-13T06:14:20.530Z,952.52
2017-01-13T06:15:20.487Z,952.56
2017-01-13T06:16:20.444Z,952.67
2017-01-13T06:17:20.402Z,952.73
2017-01-13T06:18:20.359Z,952.68
2017-01-13T06:19:20.318Z,952.72
2017-01-13T06:20:20.275Z,952.77
2017-01-13T06:21:20.232Z,952.81
2017-01-13T06:22:20.202Z,952.76
2017-01-13T06:23:20.148Z,952.88
2017-01-13T06:24:20.106Z,952.82
2017-01-13T06:25:20.064Z,952.91
2017-01-13T06:26:20.021Z,952.87
2017-01-13T06:27:19.979Z,952.85
2017-01-13T06:28:19.939Z,952.89
2017-01-13T06:29:19.896Z,952.88
2017-01-13T06:30:19.852Z,952.91
2017-01-13T06:31:19.811Z,952.89
2017-01-13T06:32:19.767Z,952.91
2017-01-13T06:33:19.723Z,952.84
2017-01-13T06:34:19.683Z,952.87
2017-01-13T06:35:19.639Z,952.84
2017-01-13T06:36:19.600Z,952.91
2017-01-13T06:37:19.554Z,952.96
2017-01-13T06:38:19.513Z,952.96
2017-01-13T06:39:19.471Z,952.9
2017-01-13T06:40:19.426Z,952.92
2017-01-13T06:41:19.386Z,952.96
2017-01-13T06:42:19.350Z,952.98
2017-01-13T06:43:19.302Z,952.98
2017-01-13T06:44:19.258Z,953.03
2017-01-13T06:45:19.218Z,952.99
2017-01-13T06:46:19.172Z,953.01
2017-01-13T06:47:19.131Z,953.11
2017-01-13T06:48:19.089Z,953.18
2017-01-13T06:49:19.047Z,953.16
2017-01-13T06:50:19.004Z,953.28
2017-01-13T06:51:18.962Z,953.22
2017-01-13T06:52:18.920Z,953.25
2017-01-13T06:53:18.875Z,953.31
2017-01-13T06:54:18.835Z,953.38
2017-01-13T06:55:18.792Z,953.33
2017-01-13T06:56:18.750Z,953.34
2017-01-13T06:57:18.708Z,953.35
2017-01-13T06:58:18.667Z,953.38
2017-01-13T06:59:18.622Z,953.37
2017-01-13T07:00:18.580Z,953.34
2017-01-13T07:01:18.538Z,953.35
2017-01-13T07:02:18.496Z,953.37
2017-01-13T07:03:18.454Z,953.34
2017-01-13T07:04:18.413Z,953.38
2017-01-13T07:05:18.370Z,953.38
2017-01-13T07:06:18.327Z,953.41
2017-01-13T07:07:18.285Z,953.41
2017-01-13T07:08:18.242Z,953.42
2017-01-13T07:09:18.198Z,953.44
2017-01-13T07:10:18.158Z,953.49
2017-01-13T07:11:18.115Z,953.49
2017-01-13T07:12:18.077Z,953.49
2017-01-13T07:13:18.031Z,953.47
2017-01-13T07:14:17.989Z,953.54
2017-01-13T07:15:17.946Z,953.55
2017-01-13T07:16:17.904Z,953.52
2017-01-13T07:17:17.861Z,953.55
2017-01-13T07:18:17.819Z,953.52
2017-01-13T07:19:17.777Z,953.58
2017-01-13T07:20:17.733Z,953.59
2017-01-13T07:21:17.695Z,953.61
2017-01-13T07:22:17.650Z,953.62
2017-01-13T07:23:17.607Z,953.62
2017-01-13T07:24:17.565Z,953.6
2017-01-13T07:25:17.525Z,953.52
2017-01-13T07:26:17.483Z,953.6
2017-01-13T07:27:17.440Z,953.56
2017-01-13T07:28:17.396Z,953.56
2017-01-13T07:29:17.354Z,953.53
2017-01-13T07:30:17.311Z,953.56
2017-01-13T07:31:17.270Z,953.58
2017-01-13T07:32:17.228Z,953.59
2017-01-13T07:33:17.188Z,953.61
2017-01-13T07:34:17.144Z,953.65
2017-01-13T07:35:17.100Z,953.63
2017-01-13T07:36:17.059Z,953.64
2017-01-13T07:37:17.018Z,953.67
2017-01-13T07:38:16.976Z,953.71
2017-01-13T07:39:16.933Z,953.68
2017-01-13T07:40:16.893Z,953.65
2017-01-13T07:41:16.850Z,953.61
2017-01-13T07:42:16.805Z,953.62
2017-01-13T07:43:16.764Z,953.63
2017-01-13T07:44:16.722Z,953.66
2017-01-13T07:45:16.681Z,953.7
2017-01-13T07:46:16.637Z,953.72
2017-01-13T07:47:16.596Z,953.7
2017-01-13T07:48:16.552Z,953.67
2017-01-13T07:49:16.511Z,953.66
2017-01-13T07:50:16.472Z,953.59
2017-01-13T07:51:16.428Z,953.58
2017-01-13T07:52:16.389Z,953.57
2017-01-13T07:53:16.343Z,953.55
2017-01-13T07:54:16.303Z,953.55
2017-01-13T07:55:16.259Z,953.64
2017-01-13T07:56:16.217Z,953.67
2017-01-13T07:57:16.173Z,953.65
2017-01-13T07:58:16.133Z,953.7
2017-01-13T07:59:16.094Z,953.68
2017-01-13T08:00:16.047Z,953.69
2017-01-13T08:01:16.006Z,953.77
2017-01-13T08:02:15.965Z,953.77
2017-01-13T08:03:15.921Z,953.75
2017-01-13T08:04:15.879Z,953.8
2017-01-13T08:05:15.838Z,953.77
2017-01-13T08:06:15.795Z,953.81
2017-01-13T08:07:15.753Z,953.79
2017-01-13T08:08:15.711Z,953.85
2017-01-13T08:09:15.670Z,953.84
2017-01-13T08:10:15.627Z,953.9
2017-01-13T08:11:15.584Z,953.87
2017-01-13T08:12:15.544Z,953.9
2017-01-13T08:13:15.500Z,953.85
2017-01-13T08:14:15.458Z,953.87
2017-01-13T08:15:15.417Z,953.9
2017-01-13T08:16:15.374Z,953.95
2017-01-13T08:17:15.333Z,953.95
2017-01-13T08:18:15.292Z,953.95
2017-01-13T08:19:15.249Z,953.94
2017-01-13T08:20:15.207Z,953.95
2017-01-13T08:21:15.164Z,953.88
2017-01-13T08:22:15.123Z,953.88
2017-01-13T08:23:15.080Z,953.83
2017-01-13T08:24:15.038Z,953.89
2017-01-13T08:25:14.997Z,953.85
2017-01-13T08:26:14.955Z,953.86
2017-01-13T08:27:14.912Z,953.83
2017-01-13T08:28:14.871Z,953.8
2017-01-13T08:29:14.830Z,953.82
2017-01-13T08:30:14.786Z,953.83
2017-01-13T08:31:14.744Z,953.81
2017-01-13T08:32:14.703Z,953.75
2017-01-13T08:33:14.660Z,953.78
2017-01-13T08:34:14.618Z,953.72
2017-01-13T08:35:14.577Z,953.68
2017-01-13T08:36:14.535Z,953.68
2017-01-13T08:37:14.493Z,953.64
2017-01-13T08:38:14.450Z,953.62
2017-01-13T08:39:14.409Z,953.62
2017-01-13T08:40:14.368Z,953.52
2017-01-13T08:41:14.324Z,953.54
2017-01-13T08:42:14.282Z,953.56
2017-01-13T08:43:14.241Z,953.52
2017-01-13T08:44:14.199Z,953.47
2017-01-13T08:45:14.156Z,953.5
2017-01-13T08:46:14.115Z,953.57
2017-01-13T08:47:14.072Z,953.5
2017-01-13T08:48:14.029Z,953.55
2017-01-13T08:49:13.988Z,953.44
2017-01-13T08:50:13.945Z,953.47
2017-01-13T08:51:13.903Z,953.48
2017-01-13T08:52:13.861Z,953.39
2017-01-13T08:53:13.819Z,953.47
2017-01-13T08:54:13.776Z,953.45
2017-01-13T08:55:13.734Z,953.37
2017-01-13T08:56:13.692Z,953.41
2017-01-13T08:57:13.649Z,953.39
2017-01-13T08:58:13.608Z,953.42
2017-01-13T08:59:13.565Z,953.44
2017-01-13T09:00:13.523Z,953.45
2017-01-13T09:01:13.480Z,953.46
2017-01-13T09:02:13.438Z,953.49
2017-01-13T09:03:13.400Z,953.41
2017-01-13T09:04:13.354Z,953.51
2017-01-13T09:05:13.310Z,953.45
2017-01-13T09:06:13.269Z,953.48
2017-01-13T09:07:13.227Z,953.48
2017-01-13T09:08:13.186Z,953.44
2017-01-13T09:09:13.143Z,953.45
2017-01-13T09:10:13.101Z,953.48
2017-01-13T09:11:13.058Z,953.49
2017-01-13T09:12:13.018Z,953.6
2017-01-13T09:13:12.983Z,953.49
2017-01-13T09:14:12.932Z,953.47
2017-01-13T09:15:12.892Z,953.53
2017-01-13T09:16:12.864Z,953.54
2017-01-13T09:17:12.807Z,953.6
2017-01-13T09:18:12.766Z,953.58
2017-01-13T09:19:12.722Z,953.61
2017-01-13T09:20:12.682Z,953.6
2017-01-13T09:21:12.637Z,953.6
2017-01-13T09:22:12.597Z,953.63
2017-01-13T09:23:12.556Z,953.62
2017-01-13T09:24:12.514Z,953.62
2017-01-13T09:25:12.472Z,953.65
2017-01-13T09:26:12.432Z,953.65
2017-01-13T09:27:12.389Z,953.66
2017-01-13T09:28:12.348Z,953.66
2017-01-13T09:29:12.306Z,953.7
2017-01-13T09:30:12.265Z,953.69
2017-01-13T09:31:12.223Z,953.71
2017-01-13T09:32:12.184Z,953.73
2017-01-13T09:33:12.141Z,953.77
2017-01-13T09:34:12.098Z,953.8
2017-01-13T09:35:12.057Z,953.77
2017-01-13T09:36:12.015Z,953.77
2017-01-13T09:37:11.975Z,953.82
2017-01-13T09:38:11.933Z,953.82
2017-01-13T09:39:11.894Z,953.88
2017-01-13T09:40:11.849Z,953.9
2017-01-13T09:41:11.809Z,953.88
2017-01-13T09:42:11.767Z,953.93
2017-01-13T09:43:11.725Z,953.93
2017-01-13T09:44:11.684Z,953.96
2017-01-13T09:45:11.643Z,953.92
2017-01-13T09:46:11.600Z,953.96
2017-01-13T09:47:11.559Z,953.99
2017-01-13T09:48:11.532Z,953.94
2017-01-13T09:49:11.477Z,953.92
2017-01-13T09:50:11.435Z,953.92
2017-01-13T09:51:11.392Z,953.94
2017-01-13T09:52:11.350Z,953.96
2017-01-13T09:53:11.310Z,954.02
2017-01-13T09:54:11.267Z,954.03
2017-01-13T09:55:11.226Z,954.02
2017-01-13T09:56:11.188Z,954.1
2017-01-13T09:57:11.145Z,954.09
2017-01-13T09:58:11.101Z,954.1
2017-01-13T09:59:11.058Z,954.15
2017-01-13T10:00:11.017Z,954.16
2017-01-13T10:01:10.975Z,954.18
2017-01-13T10:02:10.934Z,954.1
2017-01-13T10:03:10.894Z,954.12
2017-01-13T10:04:10.853Z,954.14
2017-01-13T10:05:10.809Z,954.12
2017-01-13T10:06:10.768Z,954.18
2017-01-13T10:07:10.728Z,954.19
2017-01-13T10:08:10.685Z,954.19
2017-01-13T10:09:10.643Z,954.19
2017-01-13T10:10:10.614Z,954.19
2017-01-13T10:11:10.563Z,954.22
2017-01-13T10:12:10.520Z,954.24
2017-01-13T10:13:10.478Z,954.27
2017-01-13T10:14:10.436Z,954.23
2017-01-13T10:15:10.396Z,954.26
2017-01-13T10:16:10.354Z,954.26
2017-01-13T10:17:10.311Z,954.28
2017-01-13T10:18:10.273Z,954.28
2017-01-13T10:19:10.229Z,954.25
2017-01-13T10:20:10.189Z,954.27
2017-01-13T10:21:10.148Z,954.29
2017-01-13T10:22:10.109Z,954.29
2017-01-13T10:23:10.074Z,954.27
2017-01-13T10:24:10.025Z,954.2
2017-01-13T10:25:09.983Z,954.19
2017-01-13T10:26:09.943Z,954.21
2017-01-13T10:27:09.902Z,954.21
2017-01-13T10:28:09.862Z,954.2
2017-01-13T10:29:09.820Z,954.24
2017-01-13T10:30:09.778Z,954.24
2017-01-13T10:31:09.740Z,954.27
2017-01-13T10:32:09.699Z,954.23
2017-01-13T10:33:09.658Z,954.21
2017-01-13T10:34:09.619Z,954.18
2017-01-13T10:35:09.577Z,954.18
2017-01-13T10:36:09.538Z,954.18
2017-01-13T10:37:09.515Z,954.17
2017-01-13T10:38:09.455Z,954.18
2017-01-13T10:39:09.418Z,954.18
2017-01-13T10:40:09.376Z,954.2
2017-01-13T10:41:09.337Z,954.29
2017-01-13T10:42:09.295Z,954.3
2017-01-13T10:43:09.255Z,954.24
2017-01-13T10:44:09.215Z,954.21
2017-01-13T10:45:09.173Z,954.15
2017-01-13T10:46:09.133Z,954.16
2017-01-13T10:47:09.095Z,954.14
2017-01-13T10:48:09.056Z,954.07
2017-01-13T10:49:09.013Z,954.11
2017-01-13T10:50:08.975Z,954.18
2017-01-13T10:51:08.935Z,954.12
2017-01-13T10:52:08.894Z,954.1
2017-01-13T10:53:08.856Z,954.03
2017-01-13T10:54:08.818Z,954.05
2017-01-13T10:55:08.779Z,954.02
2017-01-13T10:56:08.740Z,954
2017-01-13T10:57:08.699Z,954.04
2017-01-13T10:58:08.662Z,954.05
2017-01-13T10:59:08.624Z,954
2017-01-13T11:00:08.588Z,954.04
2017-01-13T11:01:08.549Z,953.99
2017-01-13T11:02:08.511Z,953.96
2017-01-13T11:03:08.475Z,954.07
2017-01-13T11:04:08.435Z,954.04
2017-01-13T11:05:08.399Z,954.06
2017-01-13T11:06:08.360Z,954.04
2017-01-13T11:07:08.323Z,954.06
2017-01-13T11:08:08.286Z,954.02
2017-01-13T11:09:08.253Z,954.05
2017-01-13T11:10:08.213Z,954.03
2017-01-13T11:11:08.177Z,953.87
2017-01-13T11:12:08.139Z,953.87
2017-01-13T11:13:08.103Z,953.94
2017-01-13T11:14:08.065Z,953.89
2017-01-13T11:15:08.030Z,953.96
2017-01-13T11:16:07.994Z,953.93
2017-01-13T11:17:07.957Z,953.93
2017-01-13T11:18:07.920Z,953.81
2017-01-13T11:19:07.884Z,953.87
2017-01-13T11:20:07.847Z,953.89
2017-01-13T11:21:07.808Z,953.88
2017-01-13T11:22:07.773Z,953.87
2017-01-13T11:23:07.733Z,953.92
2017-01-13T11:24:07.698Z,953.85
2017-01-13T11:25:07.660Z,953.94
2017-01-13T11:26:07.621Z,953.91
2017-01-13T11:27:07.584Z,953.92
2017-01-13T11:28:07.546Z,953.99
2017-01-13T11:29:07.508Z,954.02
2017-01-13T11:30:07.469Z,954.04
2017-01-13T11:31:07.431Z,954.03
2017-01-13T11:32:07.391Z,953.99
2017-01-13T11:33:07.353Z,954.04
2017-01-13T11:34:07.316Z,953.96
2017-01-13T11:35:07.277Z,954.02
2017-01-13T11:36:07.237Z,954.02
2017-01-13T11:37:07.198Z,953.98
2017-01-13T11:38:07.160Z,953.96
2017-01-13T11:39:07.120Z,954
2017-01-13T11:40:07.081Z,954
2017-01-13T11:41:07.043Z,953.97
2017-01-13T11:42:07.001Z,953.98
2017-01-13T11:43:06.962Z,954.05
2017-01-13T11:44:06.922Z,954.09
2017-01-13T11:45:06.884Z,954.08
2017-01-13T11:46:06.846Z,954.09
2017-01-13T11:47:06.804Z,954.11
2017-01-13T11:48:06.764Z,954.16
2017-01-13T11:49:06.725Z,954.14
2017-01-13T11:50:06.684Z,954.02
2017-01-13T11:51:06.644Z,954.09
2017-01-13T11:52:06.604Z,954.05
2017-01-13T11:53:06.566Z,953.98
2017-01-13T11:54:06.524Z,954.03
2017-01-13T11:55:06.484Z,953.97
2017-01-13T11:56:06.446Z,953.97
2017-01-13T11:57:06.406Z,953.99
2017-01-13T11:58:06.365Z,954
2017-01-13T11:59:06.326Z,953.93
2017-01-13T12:00:06.284Z,953.95
2017-01-13T12:01:06.247Z,953.93
2017-01-13T12:02:06.206Z,953.98
2017-01-13T12:03:06.164Z,953.97
2017-01-13T12:04:06.125Z,953.9
2017-01-13T12:05:06.085Z,953.94
2017-01-13T12:06:06.044Z,953.91
2017-01-13T12:07:06.005Z,953.96
2017-01-13T12:08:05.966Z,953.93
2017-01-13T12:09:05.926Z,953.92
2017-01-13T12:10:05.885Z,953.94
2017-01-13T12:11:05.844Z,953.94
2017-01-13T12:12:05.803Z,953.91
2017-01-13T12:13:05.762Z,953.93
2017-01-13T12:14:05.722Z,953.91
2017-01-13T12:15:05.681Z,953.94
2017-01-13T12:16:05.638Z,953.92
2017-01-13T12:17:05.598Z,953.87
2017-01-13T12:18:05.559Z,953.88
2017-01-13T12:19:05.519Z,953.84
2017-01-13T12:20:05.478Z,953.85
2017-01-13T12:21:05.437Z,953.85
2017-01-13T12:22:05.396Z,953.82
2017-01-13T12:23:05.355Z,953.88
2017-01-13T12:24:05.315Z,953.87
2017-01-13T12:25:05.273Z,953.88
2017-01-13T12:26:05.232Z,953.92
2017-01-13T12:27:05.193Z,953.95
2017-01-13T12:28:05.149Z,953.86
2017-01-13T12:29:05.109Z,953.82
2017-01-13T12:30:05.070Z,953.87
2017-01-13T12:31:05.029Z,953.89